createdAt,value
2019-03-19T00:00:27.587Z,50.40
2019-03-19T00:02:56.352Z,50.40
2019-03-19T00:05:25.074Z,52.00
2019-03-19T00:07:53.859Z,52.80
2019-03-19T00:10:22.611Z,54.20
2019-03-19T00:12:51.339Z,53.60
2019-03-19T00:15:20.305Z,54.40
2019-03-19T00:17:49.090Z,52.70
2019-03-19T00:20:18.038Z,54.40
2019-03-19T00:22:47.028Z,53.50
2019-03-19T00:25:15.854Z,51.80
2019-03-19T00:27:44.582Z,53.50
2019-03-19T00:30:13.436Z,52.80
2019-03-19T00:32:42.300Z,52.80
2019-03-19T00:35:11.226Z,53.70
2019-03-19T00:37:40.082Z,53.40
2019-03-19T00:40:08.992Z,53.30
2019-03-19T00:42:38.012Z,53.40
2019-03-19T00:45:06.996Z,53.00
2019-03-19T00:47:36.042Z,52.60
2019-03-19T00:50:05.620Z,54.30
2019-03-19T00:52:34.630Z,53.40
2019-03-19T00:55:03.431Z,55.20
2019-03-19T00:57:32.410Z,54.70
2019-03-19T01:00:01.424Z,56.70
2019-03-19T01:02:30.203Z,55.00
2019-03-19T01:04:59.186Z,55.90
2019-03-19T01:07:28.195Z,55.80
2019-03-19T01:09:57.058Z,54.60
2019-03-19T01:12:26.051Z,54.10
2019-03-19T01:14:54.820Z,53.10
2019-03-19T01:17:23.590Z,53.30
2019-03-19T01:19:52.326Z,51.90
2019-03-19T01:22:21.120Z,49.50
2019-03-19T01:24:50.163Z,49.70
2019-03-19T01:27:19.243Z,49.40
2019-03-19T01:29:48.089Z,48.50
2019-03-19T01:32:16.875Z,48.10
2019-03-19T01:34:45.660Z,49.30
2019-03-19T01:37:14.430Z,48.60
2019-03-19T01:39:43.492Z,50.40
2019-03-19T01:42:12.231Z,50.20
2019-03-19T01:44:41.002Z,49.50
2019-03-19T01:47:10.087Z,49.40
2019-03-19T01:49:38.946Z,46.10
2019-03-19T01:52:08.247Z,46.10
2019-03-19T01:54:37.222Z,48.40
2019-03-19T01:57:05.954Z,46.60
2019-03-19T01:59:34.723Z,45.80
2019-03-19T02:02:03.482Z,47.60
2019-03-19T02:04:32.517Z,46.90
2019-03-19T02:07:01.556Z,45.90
2019-03-19T02:09:30.771Z,48.00
2019-03-19T02:11:59.602Z,47.50
2019-03-19T02:14:28.835Z,48.00
2019-03-19T02:16:57.691Z,48.00
2019-03-19T02:19:26.440Z,48.50
2019-03-19T02:21:55.438Z,46.50
2019-03-19T02:24:24.213Z,48.20
2019-03-19T02:26:53.259Z,45.60
2019-03-19T02:29:22.044Z,44.80
2019-03-19T02:31:50.847Z,45.80
2019-03-19T02:34:19.596Z,47.90
2019-03-19T02:36:48.340Z,46.20
2019-03-19T02:39:17.120Z,45.10
2019-03-19T02:41:45.932Z,46.20
2019-03-19T02:44:14.704Z,46.30
2019-03-19T02:46:43.434Z,46.80
2019-03-19T02:49:12.423Z,46.20
2019-03-19T02:51:41.164Z,44.30
2019-03-19T02:54:09.948Z,45.80
2019-03-19T02:56:38.822Z,43.90
2019-03-19T02:59:07.621Z,45.50
2019-03-19T03:01:36.414Z,44.30
2019-03-19T03:04:05.357Z,43.80
2019-03-19T03:06:34.137Z,45.30
2019-03-19T03:09:03.690Z,46.80
2019-03-19T03:11:32.764Z,46.90
2019-03-19T03:14:01.644Z,48.10
2019-03-19T03:16:30.374Z,48.70
2019-03-19T03:18:59.114Z,50.20
2019-03-19T03:21:27.860Z,48.30
2019-03-19T03:23:56.588Z,48.80
2019-03-19T03:26:25.363Z,49.00
2019-03-19T03:28:54.805Z,48.80
2019-03-19T03:31:43.015Z,49.30
2019-03-19T03:34:12.217Z,50.50
2019-03-19T03:36:41.376Z,50.60
2019-03-19T03:39:10.766Z,51.30
2019-03-19T03:41:40.692Z,52.30
2019-03-19T03:44:09.704Z,52.70
2019-03-19T03:46:39.086Z,51.90
2019-03-19T03:49:08.074Z,52.50
2019-03-19T03:51:37.057Z,53.60
2019-03-19T03:54:06.168Z,52.60
2019-03-19T03:56:35.202Z,53.30
2019-03-19T03:59:04.272Z,53.90
2019-03-19T04:01:33.452Z,54.30
2019-03-19T04:04:02.397Z,52.10
2019-03-19T04:06:31.637Z,53.70
2019-03-19T04:09:04.655Z,51.60
2019-03-19T04:11:33.888Z,52.20
2019-03-19T04:14:03.117Z,50.20
2019-03-19T04:16:32.276Z,53.30
2019-03-19T04:19:01.643Z,52.20
2019-03-19T04:21:30.965Z,53.00
2019-03-19T04:24:00.035Z,55.00
2019-03-19T04:26:29.104Z,54.20
2019-03-19T04:28:58.215Z,53.80
2019-03-19T04:31:27.187Z,52.70
2019-03-19T04:33:56.245Z,54.40
2019-03-19T04:36:25.353Z,53.60
2019-03-19T04:38:54.574Z,52.40
2019-03-19T04:41:23.612Z,53.10
2019-03-19T04:43:53.794Z,52.40
2019-03-19T04:46:22.684Z,54.00
2019-03-19T04:48:51.782Z,51.30
2019-03-19T04:51:20.778Z,52.50
2019-03-19T04:53:49.772Z,52.70
2019-03-19T04:56:18.606Z,52.40
2019-03-19T04:58:47.796Z,51.70
2019-03-19T05:01:16.718Z,54.50
2019-03-19T05:03:45.899Z,53.80
2019-03-19T05:06:17.679Z,54.80
2019-03-19T05:08:46.536Z,55.90
2019-03-19T05:11:15.567Z,55.90
2019-03-19T05:13:48.597Z,55.90
2019-03-19T05:16:17.521Z,54.50
2019-03-19T05:18:46.471Z,56.20
2019-03-19T05:21:15.505Z,56.20
2019-03-19T05:23:48.342Z,58.80
2019-03-19T05:26:17.448Z,59.50
2019-03-19T05:28:46.559Z,56.90
2019-03-19T05:31:15.446Z,59.20
2019-03-19T05:33:46.258Z,60.00
2019-03-19T05:36:15.059Z,59.30
2019-03-19T05:38:43.862Z,61.10
2019-03-19T05:41:12.729Z,59.30
2019-03-19T05:43:43.252Z,60.40
2019-03-19T05:46:12.092Z,61.50
2019-03-19T05:48:41.715Z,60.50
2019-03-19T05:51:13.518Z,59.80
2019-03-19T05:53:42.638Z,59.20
2019-03-19T05:56:14.443Z,58.40
2019-03-19T05:58:45.342Z,57.60
2019-03-19T06:01:15.183Z,57.60
2019-03-19T06:03:44.239Z,55.50
2019-03-19T06:06:13.046Z,55.70
2019-03-19T06:08:42.333Z,55.10
2019-03-19T06:11:11.925Z,54.20
2019-03-19T06:13:41.130Z,54.20
2019-03-19T06:16:10.087Z,52.00
2019-03-19T06:18:39.629Z,53.00
2019-03-19T06:21:08.586Z,51.50
2019-03-19T06:23:37.706Z,51.30
2019-03-19T06:26:11.531Z,53.00
2019-03-19T06:28:41.540Z,53.30
2019-03-19T06:31:11.241Z,52.00
2019-03-19T06:33:41.762Z,51.10
2019-03-19T06:36:10.885Z,51.10
2019-03-19T06:38:40.499Z,52.20
2019-03-19T06:41:09.981Z,51.00
2019-03-19T06:43:41.059Z,50.10
2019-03-19T06:46:10.108Z,50.40
2019-03-19T06:48:39.395Z,48.60
2019-03-19T06:51:08.485Z,49.20
2019-03-19T06:53:37.520Z,49.60
2019-03-19T06:56:06.460Z,50.10
2019-03-19T06:58:35.381Z,48.70
2019-03-19T07:01:04.184Z,48.80
2019-03-19T07:03:33.272Z,47.50
2019-03-19T07:06:02.536Z,46.10
2019-03-19T07:08:31.475Z,48.00
2019-03-19T07:11:00.296Z,47.70
2019-03-19T07:13:29.104Z,47.00
2019-03-19T07:15:57.968Z,49.30
2019-03-19T07:18:27.068Z,51.00
2019-03-19T07:20:55.923Z,47.10
2019-03-19T07:23:24.782Z,46.80
2019-03-19T07:25:53.715Z,49.30
2019-03-19T07:28:22.658Z,51.50
2019-03-19T07:30:51.631Z,53.00
2019-03-19T07:33:20.556Z,50.20
2019-03-19T07:35:49.671Z,48.10
2019-03-19T07:38:18.887Z,51.60
2019-03-19T07:40:47.813Z,50.50
2019-03-19T07:43:17.159Z,46.60
2019-03-19T07:45:46.134Z,46.20
2019-03-19T07:48:15.251Z,44.10
2019-03-19T07:50:44.151Z,40.90
2019-03-19T07:53:13.002Z,42.70
2019-03-19T07:55:42.003Z,42.40
2019-03-19T07:58:10.786Z,41.10
2019-03-19T08:00:39.688Z,35.80
2019-03-19T08:03:15.939Z,36.70
2019-03-19T08:05:39.104Z,37.60
2019-03-19T08:08:07.975Z,37.20
2019-03-19T08:10:37.053Z,36.40
2019-03-19T08:13:06.023Z,39.40
2019-03-19T08:15:34.867Z,40.00
2019-03-19T08:18:03.814Z,42.10
2019-03-19T08:20:32.949Z,42.30
2019-03-19T08:23:02.153Z,44.70
2019-03-19T08:25:31.076Z,48.80
2019-03-19T08:27:59.995Z,44.50
2019-03-19T08:30:28.895Z,44.40
2019-03-19T08:32:57.743Z,45.10
2019-03-19T08:35:26.678Z,44.00
2019-03-19T08:37:55.837Z,47.60
2019-03-19T08:40:25.046Z,47.70
2019-03-19T08:42:54.228Z,52.80
2019-03-19T08:45:23.140Z,53.80
2019-03-19T08:47:52.100Z,61.30
2019-03-19T08:50:21.488Z,67.40
2019-03-19T08:52:50.327Z,74.30
2019-03-19T08:55:19.271Z,76.10
2019-03-19T08:57:48.258Z,78.40
2019-03-19T09:00:18.125Z,75.70
2019-03-19T09:02:47.072Z,67.10
2019-03-19T09:05:15.988Z,71.30
2019-03-19T09:07:44.905Z,68.00
2019-03-19T09:10:13.818Z,64.20
2019-03-19T09:12:42.677Z,68.40
2019-03-19T09:15:11.856Z,56.60
2019-03-19T09:17:40.649Z,55.10
2019-03-19T09:20:11.047Z,49.90
2019-03-19T09:22:40.225Z,48.80
2019-03-19T09:25:09.289Z,48.70
2019-03-19T09:27:38.375Z,47.50
2019-03-19T09:30:09.227Z,37.00
2019-03-19T09:32:42.369Z,29.50
2019-03-19T09:35:11.445Z,25.60
2019-03-19T09:37:44.429Z,24.80
2019-03-19T09:40:12.963Z,16.80
2019-03-19T09:42:42.401Z,19.60
2019-03-19T09:45:11.638Z,23.50
2019-03-19T09:47:40.651Z,27.60
2019-03-19T09:50:10.894Z,28.30
2019-03-19T09:52:39.968Z,33.20
2019-03-19T09:55:09.804Z,35.60
2019-03-19T09:57:38.865Z,37.00
2019-03-19T10:00:10.184Z,34.50
2019-03-19T10:02:39.191Z,39.60
2019-03-19T10:05:08.821Z,34.20
2019-03-19T10:07:38.128Z,21.30
2019-03-19T10:10:07.641Z,18.30
2019-03-19T10:12:36.857Z,23.40
2019-03-19T10:15:06.371Z,17.50
2019-03-19T10:17:35.387Z,19.00
2019-03-19T10:20:05.415Z,16.90
2019-03-19T10:22:34.596Z,16.80
2019-03-19T10:25:03.796Z,15.40
2019-03-19T10:27:33.270Z,14.20
2019-03-19T10:30:02.382Z,10.00
2019-03-19T10:32:31.547Z,6.00
2019-03-19T10:35:01.075Z,7.10
2019-03-19T10:37:30.246Z,7.90
2019-03-19T10:39:59.276Z,9.70
2019-03-19T10:42:28.403Z,10.30
2019-03-19T10:44:57.420Z,13.00
2019-03-19T10:47:26.656Z,10.80
2019-03-19T10:49:55.773Z,6.10
2019-03-19T10:52:25.060Z,2.30
2019-03-19T10:54:54.151Z,1.30
2019-03-19T10:57:23.144Z,1.00
2019-03-19T10:59:54.769Z,1.00
2019-03-19T11:02:23.835Z,1.00
2019-03-19T11:04:52.892Z,1.90
2019-03-19T11:07:22.081Z,3.20
2019-03-19T11:09:51.152Z,5.20
2019-03-19T11:12:20.592Z,7.10
2019-03-19T11:14:49.955Z,9.10
2019-03-19T11:17:19.386Z,8.80
2019-03-19T11:19:48.449Z,7.80
2019-03-19T11:22:17.502Z,2.50
2019-03-19T11:24:46.487Z,1.30
2019-03-19T11:27:15.593Z,1.40
2019-03-19T11:29:44.817Z,2.00
2019-03-19T11:32:13.868Z,2.60
2019-03-19T11:34:42.909Z,2.90
2019-03-19T11:37:11.962Z,1.50
2019-03-19T11:39:40.970Z,1.80
2019-03-19T11:42:10.203Z,1.00
2019-03-19T11:44:39.236Z,1.00
2019-03-19T11:47:08.325Z,1.00
2019-03-19T11:49:37.344Z,1.00
2019-03-19T11:52:06.343Z,1.00
2019-03-19T11:54:35.491Z,1.00
2019-03-19T11:57:04.725Z,1.00
2019-03-19T11:59:33.750Z,1.00
2019-03-19T12:02:02.867Z,1.00
2019-03-19T12:04:32.034Z,1.00
2019-03-19T12:07:01.238Z,1.00
2019-03-19T12:09:30.447Z,1.00
2019-03-19T12:11:59.416Z,1.00
2019-03-19T12:14:28.608Z,1.00
2019-03-19T12:16:57.600Z,1.00
2019-03-19T12:19:27.023Z,1.00
2019-03-19T12:21:56.029Z,1.00
2019-03-19T12:24:25.333Z,1.00
2019-03-19T12:26:54.500Z,1.00
2019-03-19T12:29:23.865Z,1.00
2019-03-19T12:31:53.606Z,1.00
2019-03-19T12:34:23.776Z,1.00
2019-03-19T12:36:53.321Z,1.00
2019-03-19T12:39:22.356Z,1.00
2019-03-19T12:41:51.503Z,1.00
2019-03-19T12:44:20.786Z,1.00
2019-03-19T12:46:50.027Z,1.00
2019-03-19T12:49:19.359Z,1.50
2019-03-19T12:51:48.606Z,1.80
2019-03-19T12:54:17.698Z,1.00
2019-03-19T12:56:46.851Z,1.00
2019-03-19T12:59:20.410Z,1.90
2019-03-19T13:01:47.055Z,1.00
2019-03-19T13:04:16.155Z,1.30
2019-03-19T13:06:45.239Z,3.10
2019-03-19T13:09:14.865Z,4.60
2019-03-19T13:11:44.322Z,6.50
2019-03-19T13:14:13.705Z,8.60
2019-03-19T13:16:43.035Z,10.70
2019-03-19T13:19:12.707Z,14.30
2019-03-19T13:21:42.031Z,16.90
2019-03-19T13:24:17.505Z,15.50
2019-03-19T13:26:46.813Z,12.00
2019-03-19T13:29:17.008Z,12.40
2019-03-19T13:31:46.514Z,12.80
2019-03-19T13:34:16.101Z,7.60
2019-03-19T13:36:45.256Z,6.10
2019-03-19T13:39:14.723Z,5.90
2019-03-19T13:41:44.515Z,6.50
2019-03-19T13:44:14.044Z,9.10
2019-03-19T13:46:43.112Z,2.70
2019-03-19T13:49:12.313Z,1.00
2019-03-19T13:51:41.693Z,1.00
2019-03-19T13:54:11.118Z,1.00
2019-03-19T13:56:40.737Z,1.00
2019-03-19T13:59:10.233Z,1.00
2019-03-19T14:01:39.560Z,1.00
2019-03-19T14:04:09.007Z,1.00
2019-03-19T14:06:38.129Z,1.00
2019-03-19T14:09:09.319Z,1.00
2019-03-19T14:11:38.680Z,1.00
2019-03-19T14:14:07.664Z,1.00
2019-03-19T14:16:36.791Z,1.00
2019-03-19T14:19:08.133Z,1.00
2019-03-19T14:32:04.017Z,9.10
2019-03-19T14:34:33.109Z,12.00
2019-03-19T14:37:02.456Z,17.50
2019-03-19T14:39:31.770Z,20.80
2019-03-19T14:42:00.667Z,29.70
2019-03-19T14:44:29.763Z,35.50
2019-03-19T14:46:58.868Z,41.60
2019-03-19T14:49:27.968Z,49.80
2019-03-19T14:51:56.936Z,54.70
2019-03-19T14:54:25.919Z,61.60
2019-03-19T14:56:55.215Z,60.30
2019-03-19T14:59:24.392Z,64.60
2019-03-19T15:01:53.450Z,70.60
2019-03-19T15:04:22.818Z,66.30
2019-03-19T15:06:51.734Z,57.70
2019-03-19T15:09:20.943Z,62.10
2019-03-19T15:11:49.940Z,50.80
2019-03-19T15:14:20.348Z,44.60
2019-03-19T15:16:49.317Z,46.50
2019-03-19T15:19:29.342Z,48.10
2019-03-19T15:21:58.367Z,47.10
2019-03-19T15:24:27.415Z,44.70
2019-03-19T15:26:56.455Z,42.30
2019-03-19T15:29:26.610Z,38.20
2019-03-19T15:31:55.818Z,41.40
2019-03-19T15:34:25.242Z,35.70
2019-03-19T15:36:54.269Z,33.10
2019-03-19T15:39:23.503Z,33.60
2019-03-19T15:41:52.379Z,35.50
2019-03-19T15:44:21.229Z,38.00
2019-03-19T15:46:50.370Z,36.60
2019-03-19T15:49:19.233Z,35.90
2019-03-19T15:51:48.249Z,36.60
2019-03-19T15:54:17.361Z,35.60
2019-03-19T15:56:46.405Z,33.60
2019-03-19T15:59:15.406Z,35.40
2019-03-19T16:01:44.425Z,37.20
2019-03-19T16:04:13.258Z,36.40
2019-03-19T16:06:42.399Z,36.90
2019-03-19T16:09:11.463Z,39.90
2019-03-19T16:11:40.826Z,36.90
2019-03-19T16:14:09.840Z,39.10
2019-03-19T16:16:38.629Z,34.70
2019-03-19T16:19:08.719Z,34.70
2019-03-19T16:21:37.851Z,34.40
2019-03-19T16:24:06.763Z,34.60
2019-03-19T16:26:36.072Z,36.90
2019-03-19T16:29:05.073Z,34.90
2019-03-19T16:31:33.899Z,35.80
2019-03-19T16:34:02.654Z,37.00
2019-03-19T16:36:31.411Z,36.30
2019-03-19T16:39:00.469Z,35.70
2019-03-19T16:41:29.243Z,33.00
2019-03-19T16:43:58.043Z,33.60
2019-03-19T16:46:26.823Z,32.70
2019-03-19T16:48:55.565Z,32.50
2019-03-19T16:51:24.440Z,31.00
2019-03-19T16:53:53.572Z,37.40
2019-03-19T16:56:32.896Z,37.40
2019-03-19T16:59:02.008Z,34.10
2019-03-19T17:01:30.843Z,36.50
2019-03-19T17:03:59.980Z,35.50
2019-03-19T17:06:28.762Z,36.40
2019-03-19T17:08:57.559Z,37.00
2019-03-19T17:11:26.399Z,37.00
2019-03-19T17:13:55.495Z,38.90
2019-03-19T17:16:24.276Z,38.50
2019-03-19T17:18:53.267Z,37.80
2019-03-19T17:21:22.092Z,38.30
2019-03-19T17:23:50.880Z,39.30
2019-03-19T17:26:19.667Z,41.30
2019-03-19T17:28:48.502Z,43.40
2019-03-19T17:31:17.304Z,41.80
2019-03-19T17:33:46.181Z,41.40
2019-03-19T17:36:14.956Z,43.60
2019-03-19T17:38:43.776Z,45.30
2019-03-19T17:41:12.575Z,44.80
2019-03-19T17:43:41.712Z,42.50
2019-03-19T17:46:11.191Z,41.20
2019-03-19T17:48:40.245Z,44.40
2019-03-19T17:51:09.026Z,46.10
2019-03-19T17:53:38.287Z,43.20
2019-03-19T17:56:09.834Z,42.00
2019-03-19T17:58:37.976Z,44.30
2019-03-19T18:01:17.075Z,44.40
2019-03-19T18:03:37.857Z,44.40
2019-03-19T18:06:06.976Z,45.60
2019-03-19T18:08:35.755Z,44.50
2019-03-19T18:11:04.711Z,41.20
2019-03-19T18:13:33.516Z,44.00
2019-03-19T18:16:02.650Z,45.10
2019-03-19T18:18:31.822Z,45.80
2019-03-19T18:21:00.667Z,45.90
2019-03-19T18:23:29.771Z,45.10
2019-03-19T18:25:58.810Z,46.00
2019-03-19T18:28:27.687Z,48.30
2019-03-19T18:30:56.545Z,45.40
2019-03-19T18:33:25.621Z,47.50
2019-03-19T18:35:56.422Z,48.80
2019-03-19T18:38:25.185Z,44.80
2019-03-19T18:40:53.935Z,45.00
2019-03-19T18:43:22.686Z,49.10
2019-03-19T18:45:51.515Z,49.40
2019-03-19T18:48:21.466Z,48.70
2019-03-19T18:50:50.600Z,51.20
2019-03-19T18:53:19.395Z,51.80
2019-03-19T18:55:48.415Z,51.40
2019-03-19T18:58:17.399Z,52.00
2019-03-19T19:00:46.200Z,50.00
2019-03-19T19:03:15.357Z,46.30
2019-03-19T19:05:44.114Z,44.50
2019-03-19T19:08:13.185Z,44.00
2019-03-19T19:10:42.319Z,44.00
2019-03-19T19:13:11.070Z,44.30
2019-03-19T19:15:39.817Z,44.50
2019-03-19T19:18:08.879Z,43.90
2019-03-19T19:20:37.830Z,45.90
2019-03-19T19:23:06.566Z,50.20
2019-03-19T19:25:35.580Z,49.40
2019-03-19T19:28:04.503Z,48.60
2019-03-19T19:30:33.406Z,47.40
2019-03-19T19:33:02.757Z,46.20
2019-03-19T19:35:32.080Z,45.20
2019-03-19T19:38:03.274Z,40.70
2019-03-19T19:40:31.332Z,43.70
2019-03-19T19:43:00.596Z,53.70
2019-03-19T19:45:29.380Z,55.10
2019-03-19T19:47:58.165Z,56.30
2019-03-19T19:50:26.952Z,56.00
2019-03-19T19:52:55.723Z,57.10
2019-03-19T19:55:24.488Z,56.80
2019-03-19T19:57:53.539Z,57.70
2019-03-19T20:00:22.347Z,57.90
2019-03-19T20:02:51.169Z,59.70
2019-03-19T20:05:20.159Z,58.80
2019-03-19T20:07:48.900Z,59.60
2019-03-19T20:10:18.067Z,61.20
2019-03-19T20:12:46.924Z,60.10
2019-03-19T20:15:16.323Z,59.10
2019-03-19T20:17:45.240Z,59.50
2019-03-19T20:20:15.727Z,60.50
2019-03-19T20:22:44.935Z,59.70
2019-03-19T20:25:14.318Z,59.90
2019-03-19T20:27:43.441Z,63.70
2019-03-19T20:30:14.711Z,64.40
2019-03-19T20:32:44.119Z,64.00
2019-03-19T20:35:13.096Z,62.70
2019-03-19T20:37:41.907Z,64.50
2019-03-19T20:40:11.743Z,68.60
2019-03-19T20:42:40.596Z,67.70
2019-03-19T20:45:10.232Z,65.60
2019-03-19T20:47:39.084Z,64.00
2019-03-19T20:50:11.483Z,64.70
2019-03-19T20:52:40.625Z,65.20
2019-03-19T20:55:09.583Z,67.30
2019-03-19T20:57:38.378Z,67.30
2019-03-19T21:00:08.867Z,66.60
2019-03-19T21:02:37.891Z,67.70
2019-03-19T21:05:06.856Z,66.00
2019-03-19T21:07:35.877Z,67.20
2019-03-19T21:10:06.108Z,65.50
2019-03-19T21:12:34.954Z,63.70
2019-03-19T21:15:04.248Z,64.50
2019-03-19T21:17:33.124Z,65.00
2019-03-19T21:20:02.357Z,66.90
2019-03-19T21:22:31.464Z,68.20
2019-03-19T21:25:00.593Z,67.60
2019-03-19T21:27:29.347Z,69.00
2019-03-19T21:29:58.101Z,67.60
2019-03-19T21:32:27.179Z,68.60
2019-03-19T21:35:16.396Z,67.30
2019-03-19T21:37:45.210Z,60.00
2019-03-19T21:40:14.281Z,57.10
2019-03-19T21:42:43.090Z,57.80
2019-03-19T21:45:13.779Z,53.20
2019-03-19T21:47:42.774Z,46.30
2019-03-19T21:50:13.016Z,50.10
2019-03-19T21:52:41.929Z,47.70
2019-03-19T21:55:10.924Z,43.20
2019-03-19T21:57:40.032Z,44.00
2019-03-19T22:00:11.598Z,47.20
2019-03-19T22:02:40.420Z,40.00
2019-03-19T22:05:09.748Z,43.90
2019-03-19T22:07:38.531Z,46.10
2019-03-19T22:10:10.096Z,44.40
2019-03-19T22:12:39.139Z,42.40
2019-03-19T22:15:12.872Z,45.30
2019-03-19T22:17:42.083Z,47.60
2019-03-19T22:20:11.152Z,42.90
2019-03-19T22:22:39.975Z,46.00
2019-03-19T22:25:09.681Z,44.40
2019-03-19T22:27:38.544Z,45.50
2019-03-19T22:30:09.601Z,47.70
2019-03-19T22:32:38.848Z,48.90
2019-03-19T22:35:08.054Z,50.90
2019-03-19T22:37:37.064Z,50.80
2019-03-19T22:40:07.281Z,52.20
2019-03-19T22:42:36.301Z,48.90
2019-03-19T22:45:05.748Z,47.70
2019-03-19T22:47:34.852Z,50.10
2019-03-19T22:50:03.846Z,52.70
2019-03-19T22:52:32.642Z,52.20
2019-03-19T22:55:01.432Z,51.60
2019-03-19T22:57:30.502Z,51.50
2019-03-19T22:59:59.341Z,50.80
2019-03-19T23:02:28.555Z,48.90
2019-03-19T23:04:57.318Z,49.90
2019-03-19T23:07:26.136Z,46.80
2019-03-19T23:09:54.999Z,47.60
2019-03-19T23:12:23.852Z,48.80
2019-03-19T23:14:52.653Z,49.50
2019-03-19T23:17:21.468Z,51.60
2019-03-19T23:19:50.512Z,49.00
2019-03-19T23:22:19.291Z,50.30
2019-03-19T23:24:48.039Z,51.10
2019-03-19T23:27:17.051Z,53.20
2019-03-19T23:29:45.893Z,54.30
2019-03-19T23:32:15.549Z,54.70
2019-03-19T23:34:44.401Z,56.40
2019-03-19T23:37:13.187Z,55.70
2019-03-19T23:39:42.011Z,55.00
2019-03-19T23:42:11.037Z,56.20
2019-03-19T23:44:39.824Z,56.90
2019-03-19T23:47:08.860Z,54.70
2019-03-19T23:49:37.689Z,54.90
2019-03-19T23:52:06.498Z,54.80
2019-03-19T23:54:35.519Z,55.20
2019-03-19T23:57:04.270Z,58.00
2019-03-19T23:59:33.413Z,63.10
